sensor_id;sensor_type;location;lat;lon;timestamp;pressure;altitude;pressure_sealevel;temperature
73265;BMP280;61493;51.008;14.088;2023-12-20T00:00:55;97372.88;;;4.62
73265;BMP280;61493;51.008;14.088;2023-12-20T00:03:20;97378.56;;;4.61
73265;BMP280;61493;51.008;14.088;2023-12-20T00:05:45;97371.00;;;4.63
73265;BMP280;61493;51.008;14.088;2023-12-20T00:08:11;97365.84;;;4.59
73265;BMP280;61493;51.008;14.088;2023-12-20T00:10:36;97358.81;;;4.72
73265;BMP280;61493;51.008;14.088;2023-12-20T00:13:01;97362.34;;;4.82
73265;BMP280;61493;51.008;14.088;2023-12-20T00:15:26;97362.38;;;4.78
73265;BMP280;61493;51.008;14.088;2023-12-20T00:17:52;97362.09;;;4.76
73265;BMP280;61493;51.008;14.088;2023-12-20T00:20:17;97353.28;;;4.67
73265;BMP280;61493;51.008;14.088;2023-12-20T00:22:42;97355.34;;;4.59
73265;BMP280;61493;51.008;14.088;2023-12-20T00:25:07;97344.34;;;4.80
73265;BMP280;61493;51.008;14.088;2023-12-20T00:27:33;97347.41;;;4.79
73265;BMP280;61493;51.008;14.088;2023-12-20T00:29:58;97335.09;;;4.76
73265;BMP280;61493;51.008;14.088;2023-12-20T00:32:23;97336.59;;;4.77
73265;BMP280;61493;51.008;14.088;2023-12-20T00:34:48;97338.16;;;4.74
73265;BMP280;61493;51.008;14.088;2023-12-20T00:37:13;97329.69;;;4.67
73265;BMP280;61493;51.008;14.088;2023-12-20T00:39:39;97337.22;;;4.65
73265;BMP280;61493;51.008;14.088;2023-12-20T00:42:04;97337.06;;;4.72
73265;BMP280;61493;51.008;14.088;2023-12-20T00:44:29;97325.31;;;4.60
73265;BMP280;61493;51.008;14.088;2023-12-20T00:46:55;97323.28;;;4.51
73265;BMP280;61493;51.008;14.088;2023-12-20T00:49:20;97333.44;;;4.49
73265;BMP280;61493;51.008;14.088;2023-12-20T00:51:45;97325.22;;;4.31
73265;BMP280;61493;51.008;14.088;2023-12-20T00:54:12;97328.25;;;4.29
73265;BMP280;61493;51.008;14.088;2023-12-20T00:56:37;97320.03;;;4.27
73265;BMP280;61493;51.008;14.088;2023-12-20T00:59:02;97320.19;;;4.20
73265;BMP280;61493;51.008;14.088;2023-12-20T01:01:27;97311.56;;;4.20
73265;BMP280;61493;51.008;14.088;2023-12-20T01:03:53;97317.66;;;4.17
73265;BMP280;61493;51.008;14.088;2023-12-20T01:50:02;97272.78;;;3.95
73265;BMP280;61493;51.008;14.088;2023-12-20T01:52:31;97286.63;;;3.95
73265;BMP280;61493;51.008;14.088;2023-12-20T01:55:00;97285.50;;;3.96
73265;BMP280;61493;51.008;14.088;2023-12-20T01:57:30;97278.38;;;3.97
73265;BMP280;61493;51.008;14.088;2023-12-20T01:59:56;97278.09;;;3.91
73265;BMP280;61493;51.008;14.088;2023-12-20T02:02:23;97282.97;;;3.93
73265;BMP280;61493;51.008;14.088;2023-12-20T02:04:48;97284.56;;;3.86
73265;BMP280;61493;51.008;14.088;2023-12-20T02:07:17;97282.34;;;3.85
73265;BMP280;61493;51.008;14.088;2023-12-20T02:09:43;97283.91;;;3.82
73265;BMP280;61493;51.008;14.088;2023-12-20T02:12:09;97289.13;;;3.82
73265;BMP280;61493;51.008;14.088;2023-12-20T02:14:35;97284.28;;;3.81
73265;BMP280;61493;51.008;14.088;2023-12-20T02:17:05;97286.59;;;3.79
73265;BMP280;61493;51.008;14.088;2023-12-20T02:19:31;97274.59;;;3.78
73265;BMP280;61493;51.008;14.088;2023-12-20T02:22:08;97270.94;;;3.75
73265;BMP280;61493;51.008;14.088;2023-12-20T02:24:35;97275.75;;;3.77
73265;BMP280;61493;51.008;14.088;2023-12-20T02:27:01;97267.59;;;3.75
73265;BMP280;61493;51.008;14.088;2023-12-20T02:29:28;97264.13;;;3.78
73265;BMP280;61493;51.008;14.088;2023-12-20T02:31:55;97259.78;;;3.71
73265;BMP280;61493;51.008;14.088;2023-12-20T02:34:22;97256.38;;;3.74
73265;BMP280;61493;51.008;14.088;2023-12-20T02:36:48;97261.34;;;3.69
73265;BMP280;61493;51.008;14.088;2023-12-20T02:39:15;97245.63;;;3.69
73265;BMP280;61493;51.008;14.088;2023-12-20T02:41:41;97247.09;;;3.70
73265;BMP280;61493;51.008;14.088;2023-12-20T02:44:08;97251.53;;;3.73
73265;BMP280;61493;51.008;14.088;2023-12-20T02:46:34;97252.47;;;3.62
73265;BMP280;61493;51.008;14.088;2023-12-20T02:49:00;97246.88;;;3.60
73265;BMP280;61493;51.008;14.088;2023-12-20T02:51:26;97244.72;;;3.55
73265;BMP280;61493;51.008;14.088;2023-12-20T02:53:51;97240.66;;;3.54
73265;BMP280;61493;51.008;14.088;2023-12-20T02:56:17;97253.22;;;3.63
73265;BMP280;61493;51.008;14.088;2023-12-20T02:58:43;97246.81;;;3.64
73265;BMP280;61493;51.008;14.088;2023-12-20T03:01:09;97250.97;;;3.61
73265;BMP280;61493;51.008;14.088;2023-12-20T03:03:35;97242.81;;;3.59
73265;BMP280;61493;51.008;14.088;2023-12-20T03:06:05;97245.06;;;3.57
73265;BMP280;61493;51.008;14.088;2023-12-20T03:08:33;97249.91;;;3.59
73265;BMP280;61493;51.008;14.088;2023-12-20T03:11:00;97254.41;;;3.58
73265;BMP280;61493;51.008;14.088;2023-12-20T03:13:26;97254.81;;;3.57
73265;BMP280;61493;51.008;14.088;2023-12-20T03:15:52;97249.50;;;3.60
73265;BMP280;61493;51.008;14.088;2023-12-20T03:18:18;97253.31;;;3.56
73265;BMP280;61493;51.008;14.088;2023-12-20T03:20:45;97251.44;;;3.56
73265;BMP280;61493;51.008;14.088;2023-12-20T03:23:12;97245.47;;;3.56
73265;BMP280;61493;51.008;14.088;2023-12-20T03:25:38;97238.69;;;3.58
73265;BMP280;61493;51.008;14.088;2023-12-20T03:28:04;97243.66;;;3.53
73265;BMP280;61493;51.008;14.088;2023-12-20T03:30:29;97243.94;;;3.58
73265;BMP280;61493;51.008;14.088;2023-12-20T03:32:55;97235.47;;;3.51
73265;BMP280;61493;51.008;14.088;2023-12-20T03:35:20;97235.25;;;3.61
73265;BMP280;61493;51.008;14.088;2023-12-20T03:37:46;97239.16;;;3.53
73265;BMP280;61493;51.008;14.088;2023-12-20T03:40:11;97236.22;;;3.51
73265;BMP280;61493;51.008;14.088;2023-12-20T03:42:37;97231.81;;;3.48
73265;BMP280;61493;51.008;14.088;2023-12-20T03:45:02;97235.47;;;3.51
73265;BMP280;61493;51.008;14.088;2023-12-20T03:47:27;97230.66;;;3.49
73265;BMP280;61493;51.008;14.088;2023-12-20T03:49:53;97237.03;;;3.48
73265;BMP280;61493;51.008;14.088;2023-12-20T03:52:18;97231.41;;;3.50
73265;BMP280;61493;51.008;14.088;2023-12-20T03:54:43;97237.09;;;3.45
73265;BMP280;61493;51.008;14.088;2023-12-20T03:57:09;97237.50;;;3.43
73265;BMP280;61493;51.008;14.088;2023-12-20T03:59:37;97238.63;;;3.42
73265;BMP280;61493;51.008;14.088;2023-12-20T04:02:04;97241.59;;;3.44
73265;BMP280;61493;51.008;14.088;2023-12-20T04:04:30;97244.63;;;3.42
73265;BMP280;61493;51.008;14.088;2023-12-20T04:06:56;97244.28;;;3.40
73265;BMP280;61493;51.008;14.088;2023-12-20T04:09:22;97234.47;;;3.45
73265;BMP280;61493;51.008;14.088;2023-12-20T04:11:48;97235.56;;;3.47
73265;BMP280;61493;51.008;14.088;2023-12-20T04:14:15;97239.31;;;3.46
73265;BMP280;61493;51.008;14.088;2023-12-20T04:16:41;97238.91;;;3.48
73265;BMP280;61493;51.008;14.088;2023-12-20T04:19:07;97241.44;;;3.51
73265;BMP280;61493;51.008;14.088;2023-12-20T04:21:33;97249.00;;;3.49
73265;BMP280;61493;51.008;14.088;2023-12-20T04:23:58;97238.50;;;3.49
73265;BMP280;61493;51.008;14.088;2023-12-20T04:26:23;97239.97;;;3.50
73265;BMP280;61493;51.008;14.088;2023-12-20T04:28:49;97233.41;;;3.42
73265;BMP280;61493;51.008;14.088;2023-12-20T04:31:14;97231.81;;;3.48
73265;BMP280;61493;51.008;14.088;2023-12-20T04:33:39;97228.44;;;3.48
73265;BMP280;61493;51.008;14.088;2023-12-20T04:36:05;97235.91;;;3.49
73265;BMP280;61493;51.008;14.088;2023-12-20T04:38:31;97241.88;;;3.50
73265;BMP280;61493;51.008;14.088;2023-12-20T04:40:57;97234.09;;;3.46
73265;BMP280;61493;51.008;14.088;2023-12-20T04:43:22;97239.25;;;3.50
73265;BMP280;61493;51.008;14.088;2023-12-20T04:45:47;97230.97;;;3.51
73265;BMP280;61493;51.008;14.088;2023-12-20T04:48:13;97227.63;;;3.51
73265;BMP280;61493;51.008;14.088;2023-12-20T04:50:38;97231.72;;;3.52
73265;BMP280;61493;51.008;14.088;2023-12-20T04:53:03;97237.38;;;3.50
73265;BMP280;61493;51.008;14.088;2023-12-20T04:55:28;97234.81;;;3.47
73265;BMP280;61493;51.008;14.088;2023-12-20T04:57:54;97239.31;;;3.46
73265;BMP280;61493;51.008;14.088;2023-12-20T05:00:20;97239.31;;;3.46
73265;BMP280;61493;51.008;14.088;2023-12-20T05:02:45;97238.91;;;3.48
73265;BMP280;61493;51.008;14.088;2023-12-20T05:05:10;97236.88;;;3.55
73265;BMP280;61493;51.008;14.088;2023-12-20T05:07:36;97234.31;;;3.52
73265;BMP280;61493;51.008;14.088;2023-12-20T05:10:02;97233.53;;;3.55
73265;BMP280;61493;51.008;14.088;2023-12-20T05:12:29;97229.50;;;3.50
73265;BMP280;61493;51.008;14.088;2023-12-20T05:14:54;97225.81;;;3.48
73265;BMP280;61493;51.008;14.088;2023-12-20T05:17:20;97224.69;;;3.49
73265;BMP280;61493;51.008;14.088;2023-12-20T05:19:45;97234.69;;;3.54
73265;BMP280;61493;51.008;14.088;2023-12-20T05:22:10;97239.16;;;3.53
73265;BMP280;61493;51.008;14.088;2023-12-20T05:24:36;97243.59;;;3.56
73265;BMP280;61493;51.008;14.088;2023-12-20T05:27:01;97241.31;;;3.58
73265;BMP280;61493;51.008;14.088;2023-12-20T05:29:27;97241.31;;;3.58
73265;BMP280;61493;51.008;14.088;2023-12-20T05:31:52;97240.97;;;3.56
73265;BMP280;61493;51.008;14.088;2023-12-20T05:34:17;97249.59;;;3.57
73265;BMP280;61493;51.008;14.088;2023-12-20T05:36:42;97248.16;;;3.52
73265;BMP280;61493;51.008;14.088;2023-12-20T05:39:08;97252.13;;;3.60
73265;BMP280;61493;51.008;14.088;2023-12-20T05:41:33;97250.97;;;3.61
73265;BMP280;61493;51.008;14.088;2023-12-20T05:43:59;97242.81;;;3.59
73265;BMP280;61493;51.008;14.088;2023-12-20T05:46:24;97258.53;;;3.59
73265;BMP280;61493;51.008;14.088;2023-12-20T05:48:50;97265.56;;;3.62
73265;BMP280;61493;51.008;14.088;2023-12-20T05:51:16;97266.25;;;3.67
73265;BMP280;61493;51.008;14.088;2023-12-20T05:53:42;97252.06;;;3.64
73265;BMP280;61493;51.008;14.088;2023-12-20T05:56:07;97259.19;;;3.63
73265;BMP280;61493;51.008;14.088;2023-12-20T05:58:33;97256.19;;;3.65
73265;BMP280;61493;51.008;14.088;2023-12-20T06:00:58;97268.78;;;3.70
73265;BMP280;61493;51.008;14.088;2023-12-20T06:03:24;97267.66;;;3.71
73265;BMP280;61493;51.008;14.088;2023-12-20T06:05:49;97269.47;;;3.74
73265;BMP280;61493;51.008;14.088;2023-12-20T06:08:15;97273.13;;;3.77
73265;BMP280;61493;51.008;14.088;2023-12-20T06:10:40;97261.91;;;3.76
73265;BMP280;61493;51.008;14.088;2023-12-20T06:13:06;97267.47;;;3.78
73265;BMP280;61493;51.008;14.088;2023-12-20T06:15:32;97271.19;;;3.81
73265;BMP280;61493;51.008;14.088;2023-12-20T06:17:58;97276.09;;;3.79
73265;BMP280;61493;51.008;14.088;2023-12-20T06:20:23;97279.78;;;3.81
73265;BMP280;61493;51.008;14.088;2023-12-20T06:22:50;97268.31;;;3.75
73265;BMP280;61493;51.008;14.088;2023-12-20T06:25:16;97269.06;;;3.76
73265;BMP280;61493;51.008;14.088;2023-12-20T06:27:41;97276.84;;;3.79
73265;BMP280;61493;51.008;14.088;2023-12-20T06:30:07;97289.88;;;3.83
73265;BMP280;61493;51.008;14.088;2023-12-20T06:32:34;97291.41;;;3.80
73265;BMP280;61493;51.008;14.088;2023-12-20T06:35:01;97287.25;;;3.83
73265;BMP280;61493;51.008;14.088;2023-12-20T06:37:29;97282.00;;;3.83
73265;BMP280;61493;51.008;14.088;2023-12-20T06:39:54;97291.28;;;3.87
73265;BMP280;61493;51.008;14.088;2023-12-20T06:42:19;97289.47;;;3.84
73265;BMP280;61493;51.008;14.088;2023-12-20T06:44:45;97295.00;;;3.90
73265;BMP280;61493;51.008;14.088;2023-12-20T06:47:11;97298.34;;;3.91
73265;BMP280;61493;51.008;14.088;2023-12-20T06:49:43;97305.47;;;3.90
73265;BMP280;61493;51.008;14.088;2023-12-20T06:52:09;97292.50;;;3.83
73265;BMP280;61493;51.008;14.088;2023-12-20T06:54:36;97307.03;;;3.87
73265;BMP280;61493;51.008;14.088;2023-12-20T06:57:05;97309.56;;;3.91
73265;BMP280;61493;51.008;14.088;2023-12-20T06:59:31;97316.28;;;3.92
73265;BMP280;61493;51.008;14.088;2023-12-20T07:01:57;97308.88;;;3.87
73265;BMP280;61493;51.008;14.088;2023-12-20T07:04:23;97318.63;;;3.86
73265;BMP280;61493;51.008;14.088;2023-12-20T07:06:50;97316.00;;;3.86
73265;BMP280;61493;51.008;14.088;2023-12-20T07:09:22;97323.56;;;3.84
73265;BMP280;61493;51.008;14.088;2023-12-20T07:11:48;97319.34;;;3.87
73265;BMP280;61493;51.008;14.088;2023-12-20T07:14:14;97315.28;;;3.86
73265;BMP280;61493;51.008;14.088;2023-12-20T07:16:40;97327.22;;;3.87
73265;BMP280;61493;51.008;14.088;2023-12-20T07:19:07;97339.53;;;3.90
73265;BMP280;61493;51.008;14.088;2023-12-20T07:21:34;97329.84;;;3.87
73265;BMP280;61493;51.008;14.088;2023-12-20T07:23:59;97348.53;;;3.89
73265;BMP280;61493;51.008;14.088;2023-12-20T07:26:25;97338.50;;;3.84
73265;BMP280;61493;51.008;14.088;2023-12-20T07:28:50;97335.09;;;3.87
73265;BMP280;61493;51.008;14.088;2023-12-20T07:31:22;97330.66;;;3.84
73265;BMP280;61493;51.008;14.088;2023-12-20T07:33:49;97332.06;;;3.88
73265;BMP280;61493;51.008;14.088;2023-12-20T07:36:14;97332.06;;;3.88
73265;BMP280;61493;51.008;14.088;2023-12-20T07:38:47;97338.06;;;3.89
73265;BMP280;61493;51.008;14.088;2023-12-20T07:41:13;97346.91;;;3.95
73265;BMP280;61493;51.008;14.088;2023-12-20T07:43:47;97337.19;;;3.96
73265;BMP280;61493;51.008;14.088;2023-12-20T07:46:16;97339.88;;;3.92
73265;BMP280;61493;51.008;14.088;2023-12-20T07:48:43;97333.50;;;3.93
73265;BMP280;61493;51.008;14.088;2023-12-20T07:51:09;97345.09;;;3.92
73265;BMP280;61493;51.008;14.088;2023-12-20T07:53:35;97343.91;;;3.77
73265;BMP280;61493;51.008;14.088;2023-12-20T07:56:00;97344.09;;;3.86
73265;BMP280;61493;51.008;14.088;2023-12-20T07:58:28;97348.59;;;3.85
73265;BMP280;61493;51.008;14.088;2023-12-20T08:00:55;97356.53;;;4.02
73265;BMP280;61493;51.008;14.088;2023-12-20T08:03:23;97345.56;;;4.07
73265;BMP280;61493;51.008;14.088;2023-12-20T08:05:50;97343.75;;;4.04
73265;BMP280;61493;51.008;14.088;2023-12-20T08:08:18;97341.47;;;4.06
73265;BMP280;61493;51.008;14.088;2023-12-20T08:10:49;97350.41;;;4.08
73265;BMP280;61493;51.008;14.088;2023-12-20T08:13:15;97330.22;;;4.05
73265;BMP280;61493;51.008;14.088;2023-12-20T08:15:41;97334.28;;;4.10
73265;BMP280;61493;51.008;14.088;2023-12-20T08:18:08;97323.72;;;4.14
73265;BMP280;61493;51.008;14.088;2023-12-20T08:20:33;97325.63;;;4.29
73265;BMP280;61493;51.008;14.088;2023-12-20T08:22:59;97327.00;;;4.54
73265;BMP280;61493;51.008;14.088;2023-12-20T08:25:25;97324.91;;;4.62
73265;BMP280;61493;51.008;14.088;2023-12-20T08:27:51;97327.00;;;4.54
73265;BMP280;61493;51.008;14.088;2023-12-20T08:30:16;97334.78;;;4.57
73265;BMP280;61493;51.008;14.088;2023-12-20T08:32:48;97340.66;;;4.62
73265;BMP280;61493;51.008;14.088;2023-12-20T08:35:13;97341.00;;;4.64
73265;BMP280;61493;51.008;14.088;2023-12-20T08:37:38;97335.75;;;4.64
73265;BMP280;61493;51.008;14.088;2023-12-20T08:40:06;97330.28;;;4.58
73265;BMP280;61493;51.008;14.088;2023-12-20T08:42:32;97324.69;;;4.56
73265;BMP280;61493;51.008;14.088;2023-12-20T08:44:58;97328.53;;;4.51
73265;BMP280;61493;51.008;14.088;2023-12-20T08:47:25;97327.31;;;4.56
73265;BMP280;61493;51.008;14.088;2023-12-20T08:49:52;97331.16;;;4.51
73265;BMP280;61493;51.008;14.088;2023-12-20T08:52:23;97343.56;;;4.31
73265;BMP280;61493;51.008;14.088;2023-12-20T08:54:50;97338.72;;;4.66
73265;BMP280;61493;51.008;14.088;2023-12-20T08:57:20;97339.22;;;4.77
73265;BMP280;61493;51.008;14.088;2023-12-20T08:59:47;97337.66;;;4.96
73265;BMP280;61493;51.008;14.088;2023-12-20T09:02:13;97331.41;;;4.90
73265;BMP280;61493;51.008;14.088;2023-12-20T09:04:39;97337.66;;;4.96
73265;BMP280;61493;51.008;14.088;2023-12-20T09:07:04;97327.38;;;5.01
73265;BMP280;61493;51.008;14.088;2023-12-20T09:09:30;97336.97;;;5.37
73265;BMP280;61493;51.008;14.088;2023-12-20T09:11:57;97338.22;;;5.62
73265;BMP280;61493;51.008;14.088;2023-12-20T09:14:23;97345.09;;;5.72
73265;BMP280;61493;51.008;14.088;2023-12-20T09:16:49;97342.97;;;5.67
73265;BMP280;61493;51.008;14.088;2023-12-20T09:19:17;97338.44;;;5.67
73265;BMP280;61493;51.008;14.088;2023-12-20T09:21:43;97336.09;;;5.57
73265;BMP280;61493;51.008;14.088;2023-12-20T09:24:08;97338.22;;;5.62
73265;BMP280;61493;51.008;14.088;2023-12-20T09:26:34;97347.72;;;5.43
73265;BMP280;61493;51.008;14.088;2023-12-20T09:29:00;97346.63;;;6.24
73265;BMP280;61493;51.008;14.088;2023-12-20T09:31:26;97394.09;;;9.24
73265;BMP280;61493;51.008;14.088;2023-12-20T09:36:56;97420.91;;;11.40
73265;BMP280;61493;51.008;14.088;2023-12-20T09:39:23;97402.97;;;10.33
73265;BMP280;61493;51.008;14.088;2023-12-20T09:42:02;97400.56;;;9.23
73265;BMP280;61493;51.008;14.088;2023-12-20T09:44:28;97379.31;;;7.78
73265;BMP280;61493;51.008;14.088;2023-12-20T09:46:55;97380.63;;;8.05
73265;BMP280;61493;51.008;14.088;2023-12-20T09:49:21;97382.16;;;7.93
73265;BMP280;61493;51.008;14.088;2023-12-20T09:51:47;97383.44;;;8.60
73265;BMP280;61493;51.008;14.088;2023-12-20T09:54:17;97382.88;;;10.89
73265;BMP280;61493;51.008;14.088;2023-12-20T09:56:46;97384.69;;;9.32
73265;BMP280;61493;51.008;14.088;2023-12-20T09:59:25;97386.78;;;10.31
73265;BMP280;61493;51.008;14.088;2023-12-20T10:01:58;97368.56;;;10.72
73265;BMP280;61493;51.008;14.088;2023-12-20T10:04:31;97373.94;;;10.06
73265;BMP280;61493;51.008;14.088;2023-12-20T10:07:02;97378.66;;;11.66
73265;BMP280;61493;51.008;14.088;2023-12-20T10:09:31;97373.38;;;10.83
73265;BMP280;61493;51.008;14.088;2023-12-20T10:11:57;97361.19;;;9.25
73265;BMP280;61493;51.008;14.088;2023-12-20T10:14:22;97364.63;;;8.49
73265;BMP280;61493;51.008;14.088;2023-12-20T10:17:03;97360.13;;;8.68
73265;BMP280;61493;51.008;14.088;2023-12-20T10:19:49;97349.19;;;7.98
73265;BMP280;61493;51.008;14.088;2023-12-20T10:22:15;97345.94;;;8.15
73265;BMP280;61493;51.008;14.088;2023-12-20T10:24:40;97347.53;;;8.72
73265;BMP280;61493;51.008;14.088;2023-12-20T10:27:07;97361.44;;;9.55
73265;BMP280;61493;51.008;14.088;2023-12-20T10:29:35;97349.13;;;8.69
73265;BMP280;61493;51.008;14.088;2023-12-20T10:32:24;97337.78;;;8.41
73265;BMP280;61493;51.008;14.088;2023-12-20T10:34:51;97343.81;;;8.51
73265;BMP280;61493;51.008;14.088;2023-12-20T10:37:17;97335.31;;;8.47
73265;BMP280;61493;51.008;14.088;2023-12-20T10:39:49;97339.84;;;8.06
73265;BMP280;61493;51.008;14.088;2023-12-20T10:42:16;97350.91;;;9.27
73265;BMP280;61493;51.008;14.088;2023-12-20T10:44:42;97339.59;;;9.08
73265;BMP280;61493;51.008;14.088;2023-12-20T10:47:09;97340.34;;;8.63
73265;BMP280;61493;51.008;14.088;2023-12-20T10:49:36;97339.13;;;7.74
73265;BMP280;61493;51.008;14.088;2023-12-20T10:52:02;97323.63;;;6.88
73265;BMP280;61493;51.008;14.088;2023-12-20T10:54:29;97335.00;;;6.85
73265;BMP280;61493;51.008;14.088;2023-12-20T10:56:57;97314.91;;;6.66
73265;BMP280;61493;51.008;14.088;2023-12-20T10:59:24;97314.47;;;6.67
73265;BMP280;61493;51.008;14.088;2023-12-20T11:01:50;97315.31;;;6.64
73265;BMP280;61493;51.008;14.088;2023-12-20T11:04:21;97308.63;;;7.20
73265;BMP280;61493;51.008;14.088;2023-12-20T11:06:54;97310.19;;;7.61
73265;BMP280;61493;51.008;14.088;2023-12-20T11:09:26;97326.50;;;8.50
73265;BMP280;61493;51.008;14.088;2023-12-20T11:12:09;97323.75;;;8.99
73265;BMP280;61493;51.008;14.088;2023-12-20T11:14:46;97321.97;;;9.33
73265;BMP280;61493;51.008;14.088;2023-12-20T11:17:12;97328.97;;;10.30
73265;BMP280;61493;51.008;14.088;2023-12-20T11:22:33;97313.38;;;7.87
73265;BMP280;61493;51.008;14.088;2023-12-20T11:25:07;97301.84;;;7.10
73265;BMP280;61493;51.008;14.088;2023-12-20T11:28:09;97302.09;;;6.55
73265;BMP280;61493;51.008;14.088;2023-12-20T11:30:42;97302.94;;;6.52
73265;BMP280;61493;51.008;14.088;2023-12-20T11:33:08;97293.16;;;6.14
73265;BMP280;61493;51.008;14.088;2023-12-20T11:35:33;97285.38;;;6.11
73265;BMP280;61493;51.008;14.088;2023-12-20T11:38:00;97289.03;;;6.26
73265;BMP280;61493;51.008;14.088;2023-12-20T11:40:25;97283.72;;;5.91
73265;BMP280;61493;51.008;14.088;2023-12-20T11:42:52;97288.00;;;5.98
73265;BMP280;61493;51.008;14.088;2023-12-20T11:45:24;97287.91;;;5.89
73265;BMP280;61493;51.008;14.088;2023-12-20T11:47:51;97289.06;;;5.88
73265;BMP280;61493;51.008;14.088;2023-12-20T11:50:19;97284.72;;;5.68
73265;BMP280;61493;51.008;14.088;2023-12-20T11:52:45;97297.09;;;5.68
73265;BMP280;61493;51.008;14.088;2023-12-20T11:55:10;97289.13;;;5.59
73265;BMP280;61493;51.008;14.088;2023-12-20T11:57:36;97287.00;;;5.53
73265;BMP280;61493;51.008;14.088;2023-12-20T12:00:03;97275.50;;;5.47
73265;BMP280;61493;51.008;14.088;2023-12-20T12:02:29;97273.75;;;5.44
73265;BMP280;61493;51.008;14.088;2023-12-20T12:04:55;97279.00;;;5.44
73265;BMP280;61493;51.008;14.088;2023-12-20T12:07:21;97270.47;;;5.40
73265;BMP280;61493;51.008;14.088;2023-12-20T12:09:47;97260.72;;;5.41
73265;BMP280;61493;51.008;14.088;2023-12-20T12:12:13;97251.13;;;5.47
73265;BMP280;61493;51.008;14.088;2023-12-20T12:14:39;97249.47;;;5.53
73265;BMP280;61493;51.008;14.088;2023-12-20T12:17:13;97248.41;;;5.50
73265;BMP280;61493;51.008;14.088;2023-12-20T12:19:40;97250.84;;;5.58
73265;BMP280;61493;51.008;14.088;2023-12-20T12:22:09;97245.81;;;5.76
73265;BMP280;61493;51.008;14.088;2023-12-20T12:24:38;97241.50;;;6.08
73265;BMP280;61493;51.008;14.088;2023-12-20T12:27:06;97235.78;;;6.47
73265;BMP280;61493;51.008;14.088;2023-12-20T12:29:33;97244.75;;;6.72
73265;BMP280;61493;51.008;14.088;2023-12-20T12:31:59;97244.75;;;6.72
73265;BMP280;61493;51.008;14.088;2023-12-20T12:34:30;97225.53;;;6.49
73265;BMP280;61493;51.008;14.088;2023-12-20T12:36:56;97222.78;;;6.06
73265;BMP280;61493;51.008;14.088;2023-12-20T12:39:23;97220.69;;;6.00
73265;BMP280;61493;51.008;14.088;2023-12-20T12:41:50;97208.63;;;6.94
73265;BMP280;61493;51.008;14.088;2023-12-20T12:44:15;97226.00;;;7.76
73265;BMP280;61493;51.008;14.088;2023-12-20T12:46:41;97229.38;;;8.26
73265;BMP280;61493;51.008;14.088;2023-12-20T12:49:06;97223.75;;;8.06
73265;BMP280;61493;51.008;14.088;2023-12-20T12:51:31;97212.78;;;8.07
73265;BMP280;61493;51.008;14.088;2023-12-20T12:53:57;97223.22;;;8.75
73265;BMP280;61493;51.008;14.088;2023-12-20T12:56:22;97207.94;;;9.40
73265;BMP280;61493;51.008;14.088;2023-12-20T12:58:48;97215.47;;;9.65
73265;BMP280;61493;51.008;14.088;2023-12-20T13:01:14;97215.06;;;9.58
73265;BMP280;61493;51.008;14.088;2023-12-20T13:03:39;97205.63;;;8.26
73265;BMP280;61493;51.008;14.088;2023-12-20T13:06:05;97201.94;;;7.25
73265;BMP280;61493;51.008;14.088;2023-12-20T13:08:31;97198.88;;;7.04
73265;BMP280;61493;51.008;14.088;2023-12-20T13:10:56;97200.25;;;6.87
73265;BMP280;61493;51.008;14.088;2023-12-20T13:13:25;97191.66;;;6.73
73265;BMP280;61493;51.008;14.088;2023-12-20T13:15:51;97195.81;;;6.62
73265;BMP280;61493;51.008;14.088;2023-12-20T13:18:20;97166.78;;;6.53
73265;BMP280;61493;51.008;14.088;2023-12-20T13:20:45;97176.16;;;6.97
73265;BMP280;61493;51.008;14.088;2023-12-20T13:23:11;97173.25;;;7.67
73265;BMP280;61493;51.008;14.088;2023-12-20T13:25:36;97184.13;;;7.87
73265;BMP280;61493;51.008;14.088;2023-12-20T13:28:01;97170.94;;;7.78
73265;BMP280;61493;51.008;14.088;2023-12-20T13:30:28;97167.97;;;7.27
73265;BMP280;61493;51.008;14.088;2023-12-20T13:32:55;97152.16;;;6.73
73265;BMP280;61493;51.008;14.088;2023-12-20T13:35:23;97148.41;;;6.40
73265;BMP280;61493;51.008;14.088;2023-12-20T13:38:29;97151.00;;;6.18
73265;BMP280;61493;51.008;14.088;2023-12-20T13:41:09;97149.94;;;6.50
73265;BMP280;61493;51.008;14.088;2023-12-20T13:43:35;97167.22;;;6.95
73265;BMP280;61493;51.008;14.088;2023-12-20T13:46:03;97160.66;;;6.56
73265;BMP280;61493;51.008;14.088;2023-12-20T13:48:29;97158.53;;;6.85
73265;BMP280;61493;51.008;14.088;2023-12-20T13:50:54;97155.72;;;7.42
73265;BMP280;61493;51.008;14.088;2023-12-20T13:53:20;97158.03;;;7.31
73265;BMP280;61493;51.008;14.088;2023-12-20T13:55:45;97148.91;;;6.91
73265;BMP280;61493;51.008;14.088;2023-12-20T13:58:11;97152.81;;;6.65
73265;BMP280;61493;51.008;14.088;2023-12-20T14:00:46;97137.91;;;6.62
73265;BMP280;61493;51.008;14.088;2023-12-20T14:03:19;97130.97;;;6.33
73265;BMP280;61493;51.008;14.088;2023-12-20T14:05:45;97133.75;;;6.17
73265;BMP280;61493;51.008;14.088;2023-12-20T14:08:10;97137.03;;;5.95
73265;BMP280;61493;51.008;14.088;2023-12-20T14:10:35;97135.13;;;5.74
73265;BMP280;61493;51.008;14.088;2023-12-20T14:13:01;97132.56;;;5.70
73265;BMP280;61493;51.008;14.088;2023-12-20T14:15:26;97134.97;;;5.65
73265;BMP280;61493;51.008;14.088;2023-12-20T14:17:51;97138.25;;;5.56
73265;BMP280;61493;51.008;14.088;2023-12-20T14:20:18;97130.16;;;5.50
73265;BMP280;61493;51.008;14.088;2023-12-20T14:22:43;97120.47;;;5.47
73265;BMP280;61493;51.008;14.088;2023-12-20T14:25:13;97122.06;;;5.45
73265;BMP280;61493;51.008;14.088;2023-12-20T14:27:41;97121.03;;;5.42
73265;BMP280;61493;51.008;14.088;2023-12-20T14:30:09;97125.44;;;5.45
73265;BMP280;61493;51.008;14.088;2023-12-20T14:32:35;97125.75;;;5.35
73265;BMP280;61493;51.008;14.088;2023-12-20T14:35:05;97127.72;;;5.30
73265;BMP280;61493;51.008;14.088;2023-12-20T14:37:30;97127.19;;;5.23
73265;BMP280;61493;51.008;14.088;2023-12-20T14:39:55;97118.25;;;5.20
73265;BMP280;61493;51.008;14.088;2023-12-20T14:42:20;97115.75;;;5.17
73265;BMP280;61493;51.008;14.088;2023-12-20T14:44:47;97120.59;;;5.18
73265;BMP280;61493;51.008;14.088;2023-12-20T14:47:12;97109.56;;;5.23
73265;BMP280;61493;51.008;14.088;2023-12-20T14:49:39;97117.22;;;5.18
73265;BMP280;61493;51.008;14.088;2023-12-20T14:52:05;97114.50;;;5.21
73265;BMP280;61493;51.008;14.088;2023-12-20T14:54:30;97109.75;;;5.16
73265;BMP280;61493;51.008;14.088;2023-12-20T14:56:55;97115.13;;;5.13